sensor_id;sensor_type;location;lat;lon;timestamp;pressure;altitude;pressure_sealevel;temperature;humidity
31357;BME280;60001;48.404;11.738;2024-03-17T00:00:47;96959.47;;;8.76;87.83
31357;BME280;60001;48.404;11.738;2024-03-17T00:02:22;96957.06;;;8.74;87.33
31357;BME280;60001;48.404;11.738;2024-03-17T00:03:53;96968.13;;;8.83;86.90
31357;BME280;60001;48.404;11.738;2024-03-17T00:05:24;96965.34;;;8.78;87.33
31357;BME280;60001;48.404;11.738;2024-03-17T00:06:56;96963.75;;;8.77;87.01
31357;BME280;60001;48.404;11.738;2024-03-17T00:08:27;96957.31;;;8.73;87.22
31357;BME280;60001;48.404;11.738;2024-03-17T00:09:58;96961.91;;;8.77;87.05
31357;BME280;60001;48.404;11.738;2024-03-17T00:11:30;96954.53;;;8.68;86.91
31357;BME280;60001;48.404;11.738;2024-03-17T00:13:05;96969.00;;;8.77;86.35
31357;BME280;60001;48.404;11.738;2024-03-17T00:14:37;96968.69;;;8.85;85.57
31357;BME280;60001;48.404;11.738;2024-03-17T00:16:09;96968.31;;;8.82;85.42
31357;BME280;60001;48.404;11.738;2024-03-17T00:17:41;96968.84;;;8.90;85.08
31357;BME280;60001;48.404;11.738;2024-03-17T00:19:11;96965.59;;;8.88;85.27
31357;BME280;60001;48.404;11.738;2024-03-17T00:20:42;96967.53;;;8.81;86.00
31357;BME280;60001;48.404;11.738;2024-03-17T00:22:14;96972.22;;;8.79;86.09
31357;BME280;60001;48.404;11.738;2024-03-17T00:23:47;96981.81;;;8.73;86.81
31357;BME280;60001;48.404;11.738;2024-03-17T00:25:18;96974.47;;;8.75;86.54
31357;BME280;60001;48.404;11.738;2024-03-17T00:26:50;96975.06;;;8.77;86.83
31357;BME280;60001;48.404;11.738;2024-03-17T00:28:21;96971.75;;;8.82;86.72
31357;BME280;60001;48.404;11.738;2024-03-17T00:29:52;96974.91;;;8.91;86.23
31357;BME280;60001;48.404;11.738;2024-03-17T00:31:25;96980.75;;;8.93;86.09
31357;BME280;60001;48.404;11.738;2024-03-17T00:32:56;96975.81;;;8.96;85.83
31357;BME280;60001;48.404;11.738;2024-03-17T00:34:28;96979.84;;;8.99;85.64
31357;BME280;60001;48.404;11.738;2024-03-17T00:35:59;96972.97;;;8.98;85.55
31357;BME280;60001;48.404;11.738;2024-03-17T00:37:30;96970.69;;;9.01;85.38
31357;BME280;60001;48.404;11.738;2024-03-17T00:39:02;96971.13;;;8.98;85.88
31357;BME280;60001;48.404;11.738;2024-03-17T00:40:33;96961.94;;;8.89;85.69
31357;BME280;60001;48.404;11.738;2024-03-17T00:42:05;96969.53;;;8.97;85.37
31357;BME280;60001;48.404;11.738;2024-03-17T00:43:37;96954.34;;;8.81;86.05
31357;BME280;60001;48.404;11.738;2024-03-17T00:45:11;96952.53;;;8.82;85.96
31357;BME280;60001;48.404;11.738;2024-03-17T00:46:43;96959.53;;;8.88;85.86
31357;BME280;60001;48.404;11.738;2024-03-17T00:48:14;96963.66;;;8.84;85.83
31357;BME280;60001;48.404;11.738;2024-03-17T00:49:46;96970.63;;;8.78;86.32
31357;BME280;60001;48.404;11.738;2024-03-17T00:51:16;96971.59;;;8.65;86.73
31357;BME280;60001;48.404;11.738;2024-03-17T00:52:47;96974.38;;;8.52;87.27
31357;BME280;60001;48.404;11.738;2024-03-17T00:54:20;96976.66;;;8.48;87.71
31357;BME280;60001;48.404;11.738;2024-03-17T00:55:51;96979.00;;;8.57;87.75
31357;BME280;60001;48.404;11.738;2024-03-17T00:57:22;96978.69;;;8.65;86.84
31357;BME280;60001;48.404;11.738;2024-03-17T00:58:54;96972.75;;;8.69;86.56
31357;BME280;60001;48.404;11.738;2024-03-17T01:00:25;96973.69;;;8.75;86.13
31357;BME280;60001;48.404;11.738;2024-03-17T01:01:58;96973.25;;;8.78;86.04
31357;BME280;60001;48.404;11.738;2024-03-17T01:03:29;96980.78;;;8.74;86.00
31357;BME280;60001;48.404;11.738;2024-03-17T01:05:00;96977.91;;;8.76;85.83
31357;BME280;60001;48.404;11.738;2024-03-17T01:06:35;96978.06;;;8.81;85.63
31357;BME280;60001;48.404;11.738;2024-03-17T01:08:06;96970.63;;;8.78;85.50
31357;BME280;60001;48.404;11.738;2024-03-17T01:09:37;96973.00;;;8.79;85.55
31357;BME280;60001;48.404;11.738;2024-03-17T01:11:14;96970.38;;;8.79;85.55
31357;BME280;60001;48.404;11.738;2024-03-17T01:12:47;96971.97;;;8.81;85.29
31357;BME280;60001;48.404;11.738;2024-03-17T01:14:17;96957.44;;;8.78;85.16
31357;BME280;60001;48.404;11.738;2024-03-17T01:15:52;96965.19;;;8.73;85.33
31357;BME280;60001;48.404;11.738;2024-03-17T01:17:24;96963.84;;;8.70;86.05
31357;BME280;60001;48.404;11.738;2024-03-17T01:18:55;96961.19;;;8.70;85.80
31357;BME280;60001;48.404;11.738;2024-03-17T01:20:26;96962.56;;;8.73;85.87
31357;BME280;60001;48.404;11.738;2024-03-17T01:21:59;96959.78;;;8.68;86.09
31357;BME280;60001;48.404;11.738;2024-03-17T01:23:33;96962.66;;;8.66;86.41
31357;BME280;60001;48.404;11.738;2024-03-17T01:25:04;96960.41;;;8.70;85.72
31357;BME280;60001;48.404;11.738;2024-03-17T01:26:37;96967.34;;;8.64;85.36
31357;BME280;60001;48.404;11.738;2024-03-17T01:28:08;96951.31;;;8.66;85.48
31357;BME280;60001;48.404;11.738;2024-03-17T01:29:39;96958.66;;;8.64;85.30
31357;BME280;60001;48.404;11.738;2024-03-17T01:31:10;96966.91;;;8.67;85.35
31357;BME280;60001;48.404;11.738;2024-03-17T01:32:42;96949.25;;;8.68;84.93
31357;BME280;60001;48.404;11.738;2024-03-17T01:34:13;96946.06;;;8.66;85.10
31357;BME280;60001;48.404;11.738;2024-03-17T01:35:45;96947.91;;;8.65;84.95
31357;BME280;60001;48.404;11.738;2024-03-17T01:37:16;96941.03;;;8.64;85.06
31357;BME280;60001;48.404;11.738;2024-03-17T01:38:47;96938.91;;;8.55;84.51
31357;BME280;60001;48.404;11.738;2024-03-17T01:40:19;96953.38;;;8.64;84.67
31357;BME280;60001;48.404;11.738;2024-03-17T01:41:50;96950.16;;;8.62;84.81
31357;BME280;60001;48.404;11.738;2024-03-17T01:43:20;96933.91;;;8.35;85.55
31357;BME280;60001;48.404;11.738;2024-03-17T01:44:52;96944.34;;;8.41;85.93
31357;BME280;60001;48.404;11.738;2024-03-17T01:46:23;96940.72;;;8.42;85.91
31357;BME280;60001;48.404;11.738;2024-03-17T01:47:59;96939.81;;;8.48;85.52
31357;BME280;60001;48.404;11.738;2024-03-17T01:49:31;96949.53;;;8.48;85.58
31357;BME280;60001;48.404;11.738;2024-03-17T01:51:03;96925.81;;;8.36;85.46
31357;BME280;60001;48.404;11.738;2024-03-17T01:52:34;96947.50;;;8.50;85.32
31357;BME280;60001;48.404;11.738;2024-03-17T01:54:08;96943.47;;;8.47;85.08
31357;BME280;60001;48.404;11.738;2024-03-17T01:55:43;96935.56;;;8.47;84.92
31357;BME280;60001;48.404;11.738;2024-03-17T01:57:15;96939.31;;;8.40;84.63
31357;BME280;60001;48.404;11.738;2024-03-17T01:58:47;96936.25;;;8.43;84.87
31357;BME280;60001;48.404;11.738;2024-03-17T02:00:19;96940.47;;;8.44;84.69
31357;BME280;60001;48.404;11.738;2024-03-17T02:01:50;96941.72;;;8.41;84.87
31357;BME280;60001;48.404;11.738;2024-03-17T02:03:24;96940.91;;;8.41;84.76
31357;BME280;60001;48.404;11.738;2024-03-17T02:04:55;96940.84;;;8.29;84.80
31357;BME280;60001;48.404;11.738;2024-03-17T02:06:27;96927.09;;;8.27;84.54
31357;BME280;60001;48.404;11.738;2024-03-17T02:07:58;96936.91;;;8.38;84.19
31357;BME280;60001;48.404;11.738;2024-03-17T02:09:28;96940.56;;;8.37;84.46
31357;BME280;60001;48.404;11.738;2024-03-17T02:11:00;96934.72;;;8.35;85.19
31357;BME280;60001;48.404;11.738;2024-03-17T02:12:31;96935.56;;;8.29;85.10
31357;BME280;60001;48.404;11.738;2024-03-17T02:14:03;96931.53;;;8.27;85.21
31357;BME280;60001;48.404;11.738;2024-03-17T02:15:36;96924.75;;;8.19;85.34
31357;BME280;60001;48.404;11.738;2024-03-17T02:17:08;96933.44;;;8.19;85.56
31357;BME280;60001;48.404;11.738;2024-03-17T02:18:41;96932.88;;;8.17;85.67
31357;BME280;60001;48.404;11.738;2024-03-17T02:20:12;96929.28;;;8.12;86.30
31357;BME280;60001;48.404;11.738;2024-03-17T02:21:44;96930.53;;;8.09;86.17
31357;BME280;60001;48.404;11.738;2024-03-17T02:23:16;96924.03;;;8.12;86.18
31357;BME280;60001;48.404;11.738;2024-03-17T02:24:49;96913.81;;;8.04;86.60
31357;BME280;60001;48.404;11.738;2024-03-17T02:26:22;96879.03;;;7.83;86.44
31357;BME280;60001;48.404;11.738;2024-03-17T02:27:53;96920.19;;;8.14;86.56
31357;BME280;60001;48.404;11.738;2024-03-17T02:29:24;96922.56;;;8.16;86.54
31357;BME280;60001;48.404;11.738;2024-03-17T02:30:56;96926.59;;;8.18;86.07
31357;BME280;60001;48.404;11.738;2024-03-17T02:32:26;96906.28;;;7.89;87.36
31357;BME280;60001;48.404;11.738;2024-03-17T02:33:58;96908.34;;;7.87;87.85
31357;BME280;60001;48.404;11.738;2024-03-17T02:35:29;96913.09;;;7.96;87.67
31357;BME280;60001;48.404;11.738;2024-03-17T02:37:01;96922.56;;;7.97;87.73
31357;BME280;60001;48.404;11.738;2024-03-17T02:38:36;96925.72;;;7.88;88.13
31357;BME280;60001;48.404;11.738;2024-03-17T02:40:25;96927.69;;;7.92;87.76
31357;BME280;60001;48.404;11.738;2024-03-17T02:41:57;96917.09;;;7.99;87.56
31357;BME280;60001;48.404;11.738;2024-03-17T02:43:28;96922.16;;;8.01;87.78
31357;BME280;60001;48.404;11.738;2024-03-17T02:44:59;96916.03;;;8.07;87.68
31357;BME280;60001;48.404;11.738;2024-03-17T02:46:30;96917.25;;;8.04;87.80
31357;BME280;60001;48.404;11.738;2024-03-17T02:48:03;96911.56;;;8.07;87.43
31357;BME280;60001;48.404;11.738;2024-03-17T02:49:36;96913.09;;;8.15;86.91
31357;BME280;60001;48.404;11.738;2024-03-17T02:51:08;96915.84;;;8.20;86.75
31357;BME280;60001;48.404;11.738;2024-03-17T02:52:40;96908.16;;;8.18;85.99
31357;BME280;60001;48.404;11.738;2024-03-17T02:54:12;96907.06;;;8.26;85.75
31357;BME280;60001;48.404;11.738;2024-03-17T02:55:44;96906.94;;;8.21;86.26
31357;BME280;60001;48.404;11.738;2024-03-17T02:57:14;96909.91;;;8.24;86.29
31357;BME280;60001;48.404;11.738;2024-03-17T02:58:47;96910.44;;;8.15;86.57
31357;BME280;60001;48.404;11.738;2024-03-17T03:00:19;96906.22;;;8.14;86.83
31357;BME280;60001;48.404;11.738;2024-03-17T06:33:16;96901.25;;;7.87;90.94
31357;BME280;60001;48.404;11.738;2024-03-17T06:34:49;96914.19;;;7.89;91.00
31357;BME280;60001;48.404;11.738;2024-03-17T06:37:59;96914.47;;;7.81;90.17
31357;BME280;60001;48.404;11.738;2024-03-17T06:39:31;96924.97;;;7.99;90.31
31357;BME280;60001;48.404;11.738;2024-03-17T06:41:02;96917.75;;;7.94;90.43
31357;BME280;60001;48.404;11.738;2024-03-17T06:42:33;96919.72;;;7.99;90.08
31357;BME280;60001;48.404;11.738;2024-03-17T06:44:05;96924.56;;;8.02;89.97
31357;BME280;60001;48.404;11.738;2024-03-17T06:45:37;96919.56;;;8.12;88.97
31357;BME280;60001;48.404;11.738;2024-03-17T06:47:09;96924.03;;;8.12;89.28
31357;BME280;60001;48.404;11.738;2024-03-17T06:48:41;96928.06;;;8.14;89.24
31357;BME280;60001;48.404;11.738;2024-03-17T06:50:13;96929.53;;;8.10;89.57
31357;BME280;60001;48.404;11.738;2024-03-17T06:51:43;96924.09;;;8.05;89.61
31357;BME280;60001;48.404;11.738;2024-03-17T06:53:15;96925.84;;;8.11;89.74
31357;BME280;60001;48.404;11.738;2024-03-17T06:54:47;96922.13;;;8.19;88.94
31357;BME280;60001;48.404;11.738;2024-03-17T06:56:21;96923.88;;;8.25;88.87
31357;BME280;60001;48.404;11.738;2024-03-17T06:57:52;96920.94;;;8.33;88.35
31357;BME280;60001;48.404;11.738;2024-03-17T06:59:23;96914.63;;;8.34;87.81
31357;BME280;60001;48.404;11.738;2024-03-17T07:00:54;96914.06;;;8.32;87.92
31357;BME280;60001;48.404;11.738;2024-03-17T07:02:26;96917.81;;;8.43;87.74
31357;BME280;60001;48.404;11.738;2024-03-17T07:03:59;96923.38;;;8.35;87.91
31357;BME280;60001;48.404;11.738;2024-03-17T07:05:31;96926.66;;;8.30;88.71
31357;BME280;60001;48.404;11.738;2024-03-17T07:07:03;96920.31;;;8.38;88.70
31357;BME280;60001;48.404;11.738;2024-03-17T07:08:35;96923.38;;;8.35;88.55
31357;BME280;60001;48.404;11.738;2024-03-17T07:10:06;96925.56;;;8.38;88.63
31357;BME280;60001;48.404;11.738;2024-03-17T07:11:39;96925.84;;;8.30;89.74
31357;BME280;60001;48.404;11.738;2024-03-17T07:13:09;96919.78;;;8.29;90.90
31357;BME280;60001;48.404;11.738;2024-03-17T07:14:41;96918.84;;;8.42;89.49
31357;BME280;60001;48.404;11.738;2024-03-17T07:16:12;96919.34;;;8.50;88.57
31357;BME280;60001;48.404;11.738;2024-03-17T07:17:44;96914.09;;;8.62;87.82
31357;BME280;60001;48.404;11.738;2024-03-17T07:19:16;96920.31;;;8.68;87.53
31357;BME280;60001;48.404;11.738;2024-03-17T07:20:48;96915.84;;;8.68;87.58
31357;BME280;60001;48.404;11.738;2024-03-17T07:22:18;96914.47;;;8.66;87.69
31357;BME280;60001;48.404;11.738;2024-03-17T07:23:50;96916.53;;;8.64;87.86
31357;BME280;60001;48.404;11.738;2024-03-17T07:25:22;96919.16;;;8.64;86.76
31357;BME280;60001;48.404;11.738;2024-03-17T07:26:54;96919.28;;;8.69;86.87
31357;BME280;60001;48.404;11.738;2024-03-17T07:28:25;96915.84;;;8.68;86.35
31357;BME280;60001;48.404;11.738;2024-03-17T07:29:57;96926.19;;;8.82;85.50
31357;BME280;60001;48.404;11.738;2024-03-17T07:31:28;96933.75;;;8.78;84.75
31357;BME280;60001;48.404;11.738;2024-03-17T07:33:00;96940.56;;;8.67;85.92
31357;BME280;60001;48.404;11.738;2024-03-17T07:34:32;96937.28;;;8.72;85.21
31357;BME280;60001;48.404;11.738;2024-03-17T07:36:06;96934.50;;;8.67;86.48
31357;BME280;60001;48.404;11.738;2024-03-17T07:37:39;96931.69;;;8.80;86.05
31357;BME280;60001;48.404;11.738;2024-03-17T07:39:11;96932.56;;;8.74;85.04
31357;BME280;60001;48.404;11.738;2024-03-17T07:40:42;96927.00;;;8.82;84.62
31357;BME280;60001;48.404;11.738;2024-03-17T07:42:14;96922.56;;;8.94;85.28
31357;BME280;60001;48.404;11.738;2024-03-17T07:43:45;96919.97;;;9.06;84.62
31357;BME280;60001;48.404;11.738;2024-03-17T07:45:17;96926.38;;;9.10;84.00
31357;BME280;60001;48.404;11.738;2024-03-17T07:46:49;96901.41;;;9.01;82.59
31357;BME280;60001;48.404;11.738;2024-03-17T07:48:20;96920.31;;;9.10;83.99
31357;BME280;60001;48.404;11.738;2024-03-17T07:49:55;96921.78;;;9.17;83.53
31357;BME280;60001;48.404;11.738;2024-03-17T07:51:30;96921.91;;;9.11;83.67
31357;BME280;60001;48.404;11.738;2024-03-17T07:53:00;96920.78;;;9.30;83.33
31357;BME280;60001;48.404;11.738;2024-03-17T07:54:34;96907.38;;;9.31;82.04
31357;BME280;60001;48.404;11.738;2024-03-17T07:56:07;96900.16;;;9.27;81.18
31357;BME280;60001;48.404;11.738;2024-03-17T07:57:40;96899.34;;;9.15;80.91
31357;BME280;60001;48.404;11.738;2024-03-17T07:59:14;96897.31;;;9.28;81.30
31357;BME280;60001;48.404;11.738;2024-03-17T08:00:48;96906.81;;;9.41;81.62
31357;BME280;60001;48.404;11.738;2024-03-17T08:02:19;96904.75;;;9.31;82.42
31357;BME280;60001;48.404;11.738;2024-03-17T08:03:51;96905.09;;;9.58;81.66
31357;BME280;60001;48.404;11.738;2024-03-17T08:05:27;96898.78;;;9.71;81.16
31357;BME280;60001;48.404;11.738;2024-03-17T08:06:59;96905.09;;;9.82;81.06
31357;BME280;60001;48.404;11.738;2024-03-17T08:08:30;96897.13;;;9.94;80.56
31357;BME280;60001;48.404;11.738;2024-03-17T08:10:03;96900.13;;;9.97;80.51
31357;BME280;60001;48.404;11.738;2024-03-17T08:11:34;96884.56;;;9.84;79.86
31357;BME280;60001;48.404;11.738;2024-03-17T08:13:06;96903.22;;;9.94;77.17
31357;BME280;60001;48.404;11.738;2024-03-17T08:14:39;96883.88;;;9.65;78.15
31357;BME280;60001;48.404;11.738;2024-03-17T08:16:11;96901.53;;;9.88;78.30
31357;BME280;60001;48.404;11.738;2024-03-17T08:17:42;96907.69;;;9.94;79.86
31357;BME280;60001;48.404;11.738;2024-03-17T08:19:14;96895.75;;;10.03;80.56
31357;BME280;60001;48.404;11.738;2024-03-17T08:20:47;96900.78;;;10.16;78.41
31357;BME280;60001;48.404;11.738;2024-03-17T08:22:18;96898.28;;;10.09;78.26
31357;BME280;60001;48.404;11.738;2024-03-17T08:23:50;96902.53;;;9.87;77.85
31357;BME280;60001;48.404;11.738;2024-03-17T08:25:20;96897.91;;;10.06;78.20
31357;BME280;60001;48.404;11.738;2024-03-17T08:26:52;96898.34;;;10.14;77.64
31357;BME280;60001;48.404;11.738;2024-03-17T08:28:24;96900.16;;;10.37;75.10
31357;BME280;60001;48.404;11.738;2024-03-17T08:29:56;96899.25;;;10.32;76.66
31357;BME280;60001;48.404;11.738;2024-03-17T08:31:28;96875.69;;;10.02;77.78
31357;BME280;60001;48.404;11.738;2024-03-17T08:32:59;96890.91;;;10.23;79.10
31357;BME280;60001;48.404;11.738;2024-03-17T08:34:30;96889.75;;;10.31;78.76
31357;BME280;60001;48.404;11.738;2024-03-17T08:36:06;96888.44;;;10.62;75.28
31357;BME280;60001;48.404;11.738;2024-03-17T08:37:37;96892.47;;;10.36;75.74
31357;BME280;60001;48.404;11.738;2024-03-17T08:39:09;96878.81;;;10.39;75.31
31357;BME280;60001;48.404;11.738;2024-03-17T08:40:41;96886.72;;;10.39;75.77
31357;BME280;60001;48.404;11.738;2024-03-17T08:42:15;96873.56;;;10.56;76.66
31357;BME280;60001;48.404;11.738;2024-03-17T08:43:46;96883.78;;;10.81;75.90
31357;BME280;60001;48.404;11.738;2024-03-17T08:45:18;96884.41;;;10.88;77.34
31357;BME280;60001;48.404;11.738;2024-03-17T08:46:48;96879.28;;;10.98;74.77
31357;BME280;60001;48.404;11.738;2024-03-17T08:48:21;96874.59;;;11.00;74.39
31357;BME280;60001;48.404;11.738;2024-03-17T08:49:53;96874.97;;;11.09;75.03
31357;BME280;60001;48.404;11.738;2024-03-17T08:51:26;96872.44;;;11.14;74.76
31357;BME280;60001;48.404;11.738;2024-03-17T08:52:57;96873.22;;;10.97;72.55
31357;BME280;60001;48.404;11.738;2024-03-17T08:54:29;96873.06;;;10.87;72.94
31357;BME280;60001;48.404;11.738;2024-03-17T08:56:03;96873.78;;;11.00;74.29
31357;BME280;60001;48.404;11.738;2024-03-17T08:57:36;96875.13;;;11.19;73.36
31357;BME280;60001;48.404;11.738;2024-03-17T08:59:07;96865.94;;;10.88;72.69
31357;BME280;60001;48.404;11.738;2024-03-17T09:00:43;96875.28;;;11.12;72.23
31357;BME280;60001;48.404;11.738;2024-03-17T09:02:14;96859.69;;;11.28;70.27
31357;BME280;60001;48.404;11.738;2024-03-17T09:03:46;96871.22;;;11.21;72.28
31357;BME280;60001;48.404;11.738;2024-03-17T09:05:19;96872.41;;;11.31;72.97
31357;BME280;60001;48.404;11.738;2024-03-17T09:06:52;96868.56;;;11.38;72.45
31357;BME280;60001;48.404;11.738;2024-03-17T09:08:26;96866.78;;;11.44;71.03
31357;BME280;60001;48.404;11.738;2024-03-17T09:09:58;96859.56;;;11.39;72.32
31357;BME280;60001;48.404;11.738;2024-03-17T09:11:30;96860.19;;;11.46;71.83
31357;BME280;60001;48.404;11.738;2024-03-17T09:13:04;96858.84;;;11.44;71.73
31357;BME280;60001;48.404;11.738;2024-03-17T09:14:36;96855.50;;;11.48;72.04
31357;BME280;60001;48.404;11.738;2024-03-17T09:16:08;96855.53;;;11.70;71.81
31357;BME280;60001;48.404;11.738;2024-03-17T09:17:44;96853.59;;;11.66;71.80
31357;BME280;60001;48.404;11.738;2024-03-17T09:19:14;96852.50;;;11.62;70.93
31357;BME280;60001;48.404;11.738;2024-03-17T09:20:46;96848.44;;;11.76;72.35
31357;BME280;60001;48.404;11.738;2024-03-17T09:22:27;96841.59;;;11.97;69.84
31357;BME280;60001;48.404;11.738;2024-03-17T09:24:00;96847.19;;;12.00;67.92
31357;BME280;60001;48.404;11.738;2024-03-17T09:25:30;96841.63;;;12.02;65.75
31357;BME280;60001;48.404;11.738;2024-03-17T09:27:02;96841.88;;;12.00;67.60
31357;BME280;60001;48.404;11.738;2024-03-17T09:28:36;96817.16;;;11.90;68.79
31357;BME280;60001;48.404;11.738;2024-03-17T09:30:09;96846.56;;;12.15;68.92
31357;BME280;60001;48.404;11.738;2024-03-17T09:31:41;96842.47;;;12.29;71.80
31357;BME280;60001;48.404;11.738;2024-03-17T09:33:13;96848.16;;;12.38;69.80
31357;BME280;60001;48.404;11.738;2024-03-17T09:34:46;96852.19;;;12.46;67.41
31357;BME280;60001;48.404;11.738;2024-03-17T09:36:19;96856.28;;;12.58;65.30
31357;BME280;60001;48.404;11.738;2024-03-17T09:37:52;96850.97;;;12.58;65.94
31357;BME280;60001;48.404;11.738;2024-03-17T09:39:23;96855.13;;;12.76;67.22
31357;BME280;60001;48.404;11.738;2024-03-17T09:40:58;96852.53;;;12.81;63.75
31357;BME280;60001;48.404;11.738;2024-03-17T09:42:31;96855.56;;;13.00;62.56
31357;BME280;60001;48.404;11.738;2024-03-17T09:44:06;96851.84;;;12.96;61.01
31357;BME280;60001;48.404;11.738;2024-03-17T09:45:41;96838.44;;;12.76;65.45
31357;BME280;60001;48.404;11.738;2024-03-17T09:47:18;96842.13;;;12.75;66.92
31357;BME280;60001;48.404;11.738;2024-03-17T09:48:51;96850.94;;;12.85;67.72
31357;BME280;60001;48.404;11.738;2024-03-17T09:50:26;96848.88;;;12.93;65.83
31357;BME280;60001;48.404;11.738;2024-03-17T09:51:58;96847.59;;;12.95;63.54
31357;BME280;60001;48.404;11.738;2024-03-17T09:53:33;96843.06;;;12.90;64.37
31357;BME280;60001;48.404;11.738;2024-03-17T09:55:09;96846.66;;;12.79;64.18
31357;BME280;60001;48.404;11.738;2024-03-17T09:56:41;96843.78;;;12.86;62.64
31357;BME280;60001;48.404;11.738;2024-03-17T09:58:16;96842.41;;;12.78;62.72
31357;BME280;60001;48.404;11.738;2024-03-17T09:59:51;96841.78;;;12.98;66.95
31357;BME280;60001;48.404;11.738;2024-03-17T10:01:22;96836.44;;;12.93;62.14
31357;BME280;60001;48.404;11.738;2024-03-17T10:02:55;96835.47;;;13.04;62.52
31357;BME280;60001;48.404;11.738;2024-03-17T10:04:32;96843.06;;;13.23;59.55
31357;BME280;60001;48.404;11.738;2024-03-17T10:06:04;96837.91;;;13.11;60.34
31357;BME280;60001;48.404;11.738;2024-03-17T10:07:38;96824.28;;;13.29;61.44
31357;BME280;60001;48.404;11.738;2024-03-17T10:09:16;96823.88;;;13.53;60.86
31357;BME280;60001;48.404;11.738;2024-03-17T10:10:52;96823.66;;;13.59;61.08
31357;BME280;60001;48.404;11.738;2024-03-17T10:12:26;96822.25;;;13.47;61.50
31357;BME280;60001;48.404;11.738;2024-03-17T10:14:00;96816.81;;;13.74;63.28
31357;BME280;60001;48.404;11.738;2024-03-17T10:15:48;96811.53;;;13.79;60.16
31357;BME280;60001;48.404;11.738;2024-03-17T10:17:29;96818.25;;;13.96;61.59
31357;BME280;60001;48.404;11.738;2024-03-17T10:19:09;96811.88;;;13.97;61.12
31357;BME280;60001;48.404;11.738;2024-03-17T10:20:42;96819.59;;;14.04;59.09
31357;BME280;60001;48.404;11.738;2024-03-17T10:22:13;96813.47;;;14.04;58.70
31357;BME280;60001;48.404;11.738;2024-03-17T10:23:45;96809.22;;;13.97;58.29
31357;BME280;60001;48.404;11.738;2024-03-17T10:25:17;96802.34;;;14.07;57.29
31357;BME280;60001;48.404;11.738;2024-03-17T10:26:50;96807.94;;;14.10;55.43
31357;BME280;60001;48.404;11.738;2024-03-17T10:28:22;96808.75;;;14.16;56.56
31357;BME280;60001;48.404;11.738;2024-03-17T10:29:53;96811.69;;;14.19;58.06
31357;BME280;60001;48.404;11.738;2024-03-17T10:31:26;96806.38;;;14.19;58.32
31357;BME280;60001;48.404;11.738;2024-03-17T10:32:58;96808.78;;;14.26;55.79
31357;BME280;60001;48.404;11.738;2024-03-17T10:34:31;96794.66;;;14.15;57.29
31357;BME280;60001;48.404;11.738;2024-03-17T10:36:06;96801.84;;;14.15;55.38
31357;BME280;60001;48.404;11.738;2024-03-17T10:37:53;96797.91;;;14.38;54.94
31357;BME280;60001;48.404;11.738;2024-03-17T10:39:26;96810.13;;;14.39;54.61
31357;BME280;60001;48.404;11.738;2024-03-17T10:41:03;96804.28;;;14.26;56.99
31357;BME280;60001;48.404;11.738;2024-03-17T10:42:36;96792.03;;;14.20;58.96
31357;BME280;60001;48.404;11.738;2024-03-17T10:44:09;96795.75;;;14.14;57.26
31357;BME280;60001;48.404;11.738;2024-03-17T10:45:42;96800.81;;;14.21;59.57
31357;BME280;60001;48.404;11.738;2024-03-17T10:47:21;96804.28;;;14.42;56.47
31357;BME280;60001;48.404;11.738;2024-03-17T10:48:53;96800.31;;;14.44;55.01
31357;BME280;60001;48.404;11.738;2024-03-17T10:50:25;96797.91;;;14.43;55.47
31357;BME280;60001;48.404;11.738;2024-03-17T10:52:00;96799.75;;;14.37;54.70
31357;BME280;60001;48.404;11.738;2024-03-17T10:53:33;96807.66;;;14.07;55.92
31357;BME280;60001;48.404;11.738;2024-03-17T10:55:08;96798.28;;;13.79;56.12
31357;BME280;60001;48.404;11.738;2024-03-17T10:56:41;96800.16;;;13.88;56.13
31357;BME280;60001;48.404;11.738;2024-03-17T10:58:23;96799.16;;;13.99;56.99
31357;BME280;60001;48.404;11.738;2024-03-17T10:59:59;96798.63;;;14.08;57.18
31357;BME280;60001;48.404;11.738;2024-03-17T11:01:34;96797.63;;;14.19;56.68
31357;BME280;60001;48.404;11.738;2024-03-17T11:03:08;96791.22;;;14.05;56.73
31357;BME280;60001;48.404;11.738;2024-03-17T11:04:42;96805.84;;;14.22;57.16
31357;BME280;60001;48.404;11.738;2024-03-17T11:06:14;96779.81;;;14.24;58.33
31357;BME280;60001;48.404;11.738;2024-03-17T11:07:47;96794.75;;;14.46;57.86
31357;BME280;60001;48.404;11.738;2024-03-17T11:09:20;96794.53;;;14.63;54.96
31357;BME280;60001;48.404;11.738;2024-03-17T11:10:53;96783.09;;;14.62;53.54
31357;BME280;60001;48.404;11.738;2024-03-17T11:12:44;96774.31;;;14.72;56.04
31357;BME280;60001;48.404;11.738;2024-03-17T11:14:16;96791.59;;;14.79;57.23
31357;BME280;60001;48.404;11.738;2024-03-17T11:15:48;96774.31;;;14.72;55.13
31357;BME280;60001;48.404;11.738;2024-03-17T11:17:19;96788.13;;;14.94;54.90
31357;BME280;60001;48.404;11.738;2024-03-17T11:18:51;96782.53;;;15.01;53.73
31357;BME280;60001;48.404;11.738;2024-03-17T11:20:24;96775.63;;;15.10;53.92
31357;BME280;60001;48.404;11.738;2024-03-17T11:21:56;96754.59;;;15.19;54.64
31357;BME280;60001;48.404;11.738;2024-03-17T11:23:29;96773.13;;;15.49;52.32
31357;BME280;60001;48.404;11.738;2024-03-17T11:29:26;96756.94;;;15.41;50.60
31357;BME280;60001;48.404;11.738;2024-03-17T11:30:59;96760.16;;;15.22;52.36
31357;BME280;60001;48.404;11.738;2024-03-17T11:32:37;96760.94;;;15.23;52.48
31357;BME280;60001;48.404;11.738;2024-03-17T11:34:28;96754.81;;;15.32;52.99
31357;BME280;60001;48.404;11.738;2024-03-17T11:36:32;96752.34;;;15.56;50.80
31357;BME280;60001;48.404;11.738;2024-03-17T11:38:06;96753.41;;;15.66;51.50
31357;BME280;60001;48.404;11.738;2024-03-17T11:39:51;96742.72;;;15.76;50.88
31357;BME280;60001;48.404;11.738;2024-03-17T11:41:44;96751.69;;;15.90;52.01
31357;BME280;60001;48.404;11.738;2024-03-17T11:43:17;96735.78;;;15.80;53.17
31357;BME280;60001;48.404;11.738;2024-03-17T11:45:05;96751.09;;;16.03;52.04
31357;BME280;60001;48.404;11.738;2024-03-17T11:46:37;96747.81;;;16.16;52.07